Time;durP1;ratioP1;P1;durP2;ratioP2;P2;SDS_P1;SDS_P2;PMS_P1;PMS_P2;Temp;Humidity;BMP_temperature;BMP_pressure;BME280_temperature;BME280_humidity;BME280_pressure;Samples;Min_cycle;Max_cycle;Signal;HPM_P1;HPM_P2
2021/06/17 00:00:11;;;;;;;4.30;3.40;;;20.50;99.90;;;;;;4997184;28;20422;-77
2021/06/17 00:02:39;;;;;;;6.40;4.17;;;20.50;99.90;;;;;;4995414;28;20448;-76
2021/06/17 00:05:09;;;;;;;8.00;6.47;;;20.50;99.90;;;;;;4997017;28;20508;-76
2021/06/17 00:07:39;;;;;;;5.07;4.57;;;20.50;99.90;;;;;;4997250;28;20940;-77
2021/06/17 00:10:10;;;;;;;5.87;5.33;;;20.50;99.90;;;;;;4995781;28;20413;-77
2021/06/17 00:12:38;;;;;;;4.30;3.90;;;20.50;99.90;;;;;;4996539;28;20445;-75
2021/06/17 00:15:10;;;;;;;4.57;4.23;;;20.50;99.90;;;;;;4997494;28;20425;-77
2021/06/17 00:17:39;;;;;;;6.07;4.50;;;20.50;99.90;;;;;;4996888;28;20429;-76
2021/06/17 00:20:08;;;;;;;5.03;4.57;;;20.50;99.90;;;;;;4996275;28;20831;-77
2021/06/17 00:22:37;;;;;;;5.10;4.60;;;20.50;99.90;;;;;;4996668;28;20404;-76
2021/06/17 00:25:08;;;;;;;5.83;5.33;;;20.50;99.90;;;;;;4996810;28;20401;-75
2021/06/17 00:27:37;;;;;;;5.67;5.17;;;20.50;99.90;;;;;;4995874;28;20430;-77
2021/06/17 00:30:08;;;;;;;5.07;4.63;;;20.50;99.90;;;;;;4995287;28;20414;-77
2021/06/17 00:32:36;;;;;;;8.53;7.63;;;20.50;99.90;;;;;;4996840;28;20458;-78
2021/06/17 00:35:06;;;;;;;5.50;5.00;;;20.40;99.90;;;;;;4996225;28;20432;-79
2021/06/17 00:37:36;;;;;;;6.23;5.27;;;20.50;99.90;;;;;;4996214;28;20458;-77
2021/06/17 00:40:07;;;;;;;5.73;5.23;;;20.40;99.90;;;;;;4996431;28;20436;-78
2021/06/17 00:42:36;;;;;;;13.97;6.10;;;20.40;99.90;;;;;;4994814;28;20501;-77
2021/06/17 00:45:07;;;;;;;5.63;5.20;;;20.40;99.90;;;;;;4996163;28;20430;-76
2021/06/17 00:47:36;;;;;;;6.90;6.20;;;20.30;99.90;;;;;;4994169;28;20518;-77
2021/06/17 00:50:06;;;;;;;11.43;6.17;;;20.40;99.90;;;;;;4994434;28;20422;-76
2021/06/17 00:52:35;;;;;;;6.43;5.83;;;20.40;99.90;;;;;;4994083;28;20969;-77
2021/06/17 00:55:05;;;;;;;9.00;6.43;;;20.50;99.90;;;;;;4994186;28;20422;-77
2021/06/17 00:57:34;;;;;;;6.93;6.27;;;20.50;99.90;;;;;;4993044;28;20409;-76
2021/06/17 01:00:02;;;;;;;7.53;6.83;;;20.50;99.90;;;;;;4992526;28;20434;-76
2021/06/17 01:02:30;;;;;;;7.30;6.50;;;20.40;99.90;;;;;;4990280;28;20440;-77
2021/06/17 01:04:59;;;;;;;8.27;6.33;;;20.50;99.90;;;;;;4995977;28;20445;-77
2021/06/17 01:07:35;;;;;;;8.70;7.00;;;20.40;99.90;;;;;;5002615;28;20407;-77
2021/06/17 01:10:11;;;;;;;6.67;6.07;;;20.40;99.90;;;;;;5006146;28;20412;-77
2021/06/17 01:12:54;;;;;;;7.50;6.80;;;20.40;99.90;;;;;;5003583;28;20426;-76
2021/06/17 01:15:24;;;;;;;8.57;7.50;;;20.30;99.90;;;;;;5007211;28;20469;-76
2021/06/17 01:17:56;;;;;;;6.57;5.87;;;20.20;99.90;;;;;;5008581;28;20442;-76
2021/06/17 01:20:29;;;;;;;7.07;5.83;;;20.20;99.90;;;;;;4995743;28;20436;-77
2021/06/17 01:23:08;;;;;;;6.83;6.13;;;20.20;99.90;;;;;;4993840;28;20785;-77
2021/06/17 01:25:58;;;;;;;8.03;7.23;;;20.10;99.90;;;;;;4992773;28;20392;-77
2021/06/17 01:28:29;;;;;;;8.93;7.10;;;20.10;99.90;;;;;;4996660;28;20508;-77
2021/06/17 01:31:00;;;;;;;7.33;6.57;;;20.00;99.90;;;;;;5008832;28;20399;-78
2021/06/17 01:33:31;;;;;;;6.37;5.77;;;19.90;99.90;;;;;;5015897;28;20400;-76
2021/06/17 01:36:04;;;;;;;8.10;7.30;;;19.90;99.90;;;;;;5010015;28;20426;-76
2021/06/17 01:38:34;;;;;;;6.77;6.17;;;19.90;99.90;;;;;;5000955;28;20476;-79
2021/06/17 01:41:04;;;;;;;7.53;6.90;;;19.90;99.90;;;;;;4998244;28;20420;-78
2021/06/17 01:43:35;;;;;;;7.50;6.33;;;19.90;99.90;;;;;;4996927;28;20496;-76
2021/06/17 01:46:05;;;;;;;7.07;6.37;;;19.80;99.90;;;;;;4993528;28;20450;-77
2021/06/17 01:48:35;;;;;;;7.40;6.80;;;19.80;99.90;;;;;;4991824;28;20412;-76
2021/06/17 01:51:03;;;;;;;8.57;7.47;;;19.70;99.90;;;;;;4993108;28;20508;-77
2021/06/17 01:53:31;;;;;;;6.90;6.30;;;19.80;99.90;;;;;;4995107;28;20978;-78
2021/06/17 01:56:01;;;;;;;8.27;7.47;;;19.80;99.90;;;;;;4995622;28;20401;-77
2021/06/17 01:58:30;;;;;;;7.30;6.60;;;19.70;99.90;;;;;;4993319;28;20500;-77
2021/06/17 02:01:03;;;;;;;7.97;7.30;;;19.70;99.90;;;;;;4995479;28;20462;-77
2021/06/17 02:03:33;;;;;;;8.70;7.40;;;19.70;99.90;;;;;;4997528;28;20434;-77
2021/06/17 02:06:02;;;;;;;9.07;7.67;;;19.60;99.90;;;;;;5007521;28;20429;-77
2021/06/17 02:08:30;;;;;;;11.07;7.47;;;19.70;99.90;;;;;;5007718;28;20405;-77
2021/06/17 02:10:58;;;;;;;11.83;7.10;;;19.70;99.90;;;;;;5014358;28;20413;-75
2021/06/17 02:13:27;;;;;;;7.30;6.70;;;19.70;99.90;;;;;;5016399;28;20400;-76
2021/06/17 02:15:58;;;;;;;8.83;7.93;;;19.70;99.90;;;;;;5026561;28;20408;-75
2021/06/17 02:18:29;;;;;;;11.90;7.23;;;19.70;99.90;;;;;;5017130;28;20418;-76
2021/06/17 02:20:57;;;;;;;8.90;8.03;;;19.70;99.90;;;;;;5015200;28;20419;-76
2021/06/17 02:23:28;;;;;;;11.37;8.10;;;19.70;99.90;;;;;;5028366;28;20478;-77
2021/06/17 02:25:58;;;;;;;8.73;7.93;;;19.70;99.90;;;;;;5015978;28;20447;-76
2021/06/17 02:28:30;;;;;;;11.07;10.03;;;19.70;99.90;;;;;;5006583;28;20929;-78
2021/06/17 02:31:02;;;;;;;16.40;9.87;;;19.70;99.90;;;;;;4990238;28;20522;-77
2021/06/17 02:33:32;;;;;;;9.93;9.03;;;19.80;99.90;;;;;;5007337;28;20518;-77
2021/06/17 02:36:01;;;;;;;11.00;9.80;;;19.80;99.90;;;;;;4994840;28;20420;-78
2021/06/17 02:38:31;;;;;;;10.23;9.30;;;19.80;99.90;;;;;;4994293;28;20450;-77
2021/06/17 02:41:04;;;;;;;11.07;9.43;;;19.80;99.90;;;;;;4993991;28;20432;-77
2021/06/17 02:43:34;;;;;;;10.27;9.37;;;19.80;99.90;;;;;;4993860;28;20444;-76
2021/06/17 02:46:03;;;;;;;11.53;10.27;;;19.80;99.90;;;;;;4993788;28;20396;-78
2021/06/17 02:48:33;;;;;;;9.37;8.47;;;19.80;99.90;;;;;;4994720;28;20422;-77
2021/06/17 02:51:01;;;;;;;10.17;9.17;;;19.80;99.90;;;;;;4995935;28;20417;-78
2021/06/17 02:53:30;;;;;;;10.07;9.17;;;19.80;99.90;;;;;;4994754;28;20432;-78
2021/06/17 02:55:59;;;;;;;12.40;11.00;;;19.90;99.90;;;;;;4993057;28;20397;-77
2021/06/17 02:58:40;;;;;;;11.17;10.17;;;19.90;99.90;;;;;;4992512;28;20429;-78
2021/06/17 03:01:14;;;;;;;12.00;9.57;;;19.90;99.90;;;;;;5004215;28;20432;-78
2021/06/17 03:03:47;;;;;;;9.67;8.77;;;19.90;99.90;;;;;;5005093;28;20446;-78
2021/06/17 03:06:23;;;;;;;11.50;10.47;;;19.90;99.90;;;;;;4997311;28;20786;-78
2021/06/17 03:08:56;;;;;;;9.83;9.03;;;20.00;99.90;;;;;;4996573;28;20436;-78
2021/06/17 03:11:26;;;;;;;9.93;9.03;;;20.00;99.90;;;;;;5010362;28;20428;-78
2021/06/17 03:13:57;;;;;;;11.50;10.40;;;20.00;99.90;;;;;;4995808;28;20450;-77
2021/06/17 03:16:29;;;;;;;10.40;9.40;;;20.00;99.90;;;;;;4990721;28;20444;-77
2021/06/17 03:19:01;;;;;;;14.63;11.47;;;20.10;99.90;;;;;;5008900;28;20449;-77
2021/06/17 03:21:33;;;;;;;10.70;9.70;;;20.10;99.90;;;;;;4995264;28;20432;-77
2021/06/17 03:24:04;;;;;;;12.10;10.10;;;20.10;99.90;;;;;;4992785;28;20463;-76
2021/06/17 03:26:34;;;;;;;14.17;11.60;;;20.20;99.90;;;;;;4992941;28;20784;-76
2021/06/17 03:29:03;;;;;;;11.60;10.40;;;20.20;99.90;;;;;;4992353;28;20429;-76
2021/06/17 03:31:33;;;;;;;11.50;10.43;;;20.30;99.90;;;;;;4992002;28;20445;-76
2021/06/17 03:34:04;;;;;;;10.90;9.80;;;20.40;99.90;;;;;;4991911;28;20775;-75
2021/06/17 03:36:33;;;;;;;9.90;9.00;;;20.40;99.90;;;;;;4986340;28;20414;-75
2021/06/17 03:39:04;;;;;;;11.97;10.97;;;20.50;99.90;;;;;;4991330;28;20937;-75
2021/06/17 03:41:33;;;;;;;12.30;11.10;;;21.10;99.90;;;;;;4991391;28;20880;-77
2021/06/17 03:44:02;;;;;;;9.63;8.63;;;22.00;99.90;;;;;;4991306;28;20868;-76
2021/06/17 03:46:30;;;;;;;12.23;11.17;;;22.90;99.90;;;;;;4992313;28;20828;-76
2021/06/17 03:49:00;;;;;;;9.70;8.80;;;23.50;99.90;;;;;;4991364;28;20440;-76
2021/06/17 03:51:32;;;;;;;12.67;11.07;;;24.10;99.90;;;;;;4991547;28;20414;-76
2021/06/17 03:54:01;;;;;;;11.90;10.73;;;24.70;99.90;;;;;;4990289;28;20414;-76
2021/06/17 03:56:30;;;;;;;12.27;11.20;;;24.90;99.90;;;;;;4990218;28;20766;-76
2021/06/17 03:58:58;;;;;;;12.00;10.80;;;24.80;99.90;;;;;;4993985;28;20442;-76
2021/06/17 04:01:27;;;;;;;14.30;11.97;;;25.10;99.90;;;;;;5010017;28;20440;-77
2021/06/17 04:03:55;;;;;;;13.03;11.83;;;25.40;99.90;;;;;;4994142;28;20458;-76
2021/06/17 04:06:25;;;;;;;10.87;9.77;;;25.80;99.90;;;;;;4995371;28;20925;-77
2021/06/17 04:08:58;;;;;;;11.83;10.70;;;26.40;99.90;;;;;;4995135;28;20917;-76
2021/06/17 04:11:27;;;;;;;11.90;10.70;;;26.90;99.90;;;;;;4995327;28;20520;-76
2021/06/17 04:13:56;;;;;;;11.30;10.30;;;27.20;99.90;;;;;;4994902;28;20488;-76
2021/06/17 04:16:26;;;;;;;11.90;10.43;;;27.50;99.90;;;;;;4999729;28;20959;-76
2021/06/17 04:18:56;;;;;;;11.37;10.27;;;27.60;99.90;;;;;;5009924;28;20438;-76
2021/06/17 04:21:25;;;;;;;12.00;10.80;;;27.60;99.90;;;;;;4994337;28;21010;-76
2021/06/17 04:23:58;;;;;;;11.87;10.77;;;28.10;99.90;;;;;;4994281;28;20501;-75
2021/06/17 04:26:28;;;;;;;11.53;10.43;;;28.40;99.90;;;;;;4994489;28;20880;-76
2021/06/17 04:28:57;;;;;;;11.80;10.63;;;28.50;99.90;;;;;;4992266;28;20488;-75
2021/06/17 04:31:26;;;;;;;13.40;12.00;;;28.60;99.90;;;;;;4992487;28;20452;-76
2021/06/17 04:33:54;;;;;;;12.23;11.00;;;28.80;99.90;;;;;;4994494;28;20418;-76
2021/06/17 04:36:23;;;;;;;11.43;10.43;;;29.20;99.90;;;;;;4994095;28;20477;-76
2021/06/17 04:38:51;;;;;;;11.17;10.17;;;29.60;99.90;;;;;;4992613;28;20426;-77
2021/06/17 04:41:21;;;;;;;12.07;10.97;;;30.00;99.90;;;;;;4992548;28;20496;-77
2021/06/17 04:43:49;;;;;;;11.13;10.07;;;30.40;99.90;;;;;;4994665;28;20823;-77
2021/06/17 04:46:21;;;;;;;12.67;11.37;;;30.80;99.90;;;;;;4994566;28;20422;-78
2021/06/17 04:48:51;;;;;;;12.10;11.00;;;31.00;99.90;;;;;;4995054;28;20529;-77
2021/06/17 04:51:20;;;;;;;10.80;9.90;;;30.40;99.90;;;;;;4994293;28;20445;-77
2021/06/17 04:53:50;;;;;;;12.70;11.50;;;30.10;99.90;;;;;;4995502;28;20416;-77
2021/06/17 04:56:18;;;;;;;11.37;10.37;;;30.60;99.90;;;;;;4994675;28;20449;-77
2021/06/17 04:58:49;;;;;;;12.27;11.27;;;29.70;99.90;;;;;;4994462;28;20437;-76
2021/06/17 05:01:18;;;;;;;14.03;11.00;;;29.20;99.90;;;;;;4994687;28;20453;-77
2021/06/17 05:03:47;;;;;;;11.90;10.80;;;30.00;99.90;;;;;;4994363;28;20828;-76
2021/06/17 05:06:17;;;;;;;11.07;10.17;;;30.60;99.90;;;;;;4993684;28;20512;-76
2021/06/17 05:11:31;;;;;;;12.03;11.03;;;31.80;99.90;;;;;;4993955;28;20445;-76
2021/06/17 05:14:00;;;;;;;12.80;11.60;;;32.60;99.90;;;;;;4993657;28;20689;-76
2021/06/17 05:16:28;;;;;;;13.13;11.93;;;32.40;99.90;;;;;;4992705;28;20430;-78
2021/06/17 05:18:57;;;;;;;11.10;10.10;;;32.90;99.90;;;;;;4993951;28;20426;-76
2021/06/17 05:21:25;;;;;;;11.50;10.53;;;33.30;99.90;;;;;;4993844;28;20464;-77
2021/06/17 05:23:53;;;;;;;11.63;10.63;;;32.80;99.90;;;;;;4993646;28;20699;-77
2021/06/17 05:26:21;;;;;;;10.63;9.73;;;32.90;99.90;;;;;;4994264;28;20410;-77
2021/06/17 05:28:50;;;;;;;11.20;10.30;;;33.60;99.90;;;;;;4994121;28;20410;-77
2021/06/17 05:31:20;;;;;;;11.27;10.27;;;33.80;99.90;;;;;;4994170;28;20450;-77
2021/06/17 05:33:48;;;;;;;12.33;11.33;;;33.40;99.90;;;;;;4999133;28;20987;-76
2021/06/17 05:36:16;;;;;;;13.80;12.60;;;33.50;99.90;;;;;;4994235;28;20433;-77
2021/06/17 05:38:45;;;;;;;12.10;11.10;;;32.00;99.90;;;;;;4994143;28;20436;-77
2021/06/17 05:41:12;;;;;;;14.47;13.37;;;29.20;99.90;;;;;;4993191;28;20590;-76
2021/06/17 05:43:41;;;;;;;12.57;11.47;;;27.50;99.90;;;;;;4993254;28;20511;-77
2021/06/17 05:46:09;;;;;;;14.90;13.60;;;26.50;99.90;;;;;;4992081;28;20422;-76
2021/06/17 05:48:38;;;;;;;14.53;13.13;;;26.00;99.90;;;;;;5009449;28;20804;-75
2021/06/17 05:51:06;;;;;;;14.30;13.00;;;25.50;99.90;;;;;;4993722;28;20424;-77
2021/06/17 05:53:35;;;;;;;13.87;12.63;;;25.20;99.90;;;;;;4993612;28;21011;-76
2021/06/17 05:56:03;;;;;;;13.57;12.27;;;25.10;99.90;;;;;;4994218;28;20421;-76
2021/06/17 05:58:31;;;;;;;13.63;12.43;;;25.00;99.90;;;;;;4994016;28;20445;-77
2021/06/17 06:01:00;;;;;;;13.87;12.50;;;24.90;99.90;;;;;;4994037;28;20446;-77
2021/06/17 06:03:28;;;;;;;13.67;12.37;;;24.80;99.90;;;;;;4993028;28;20473;-76
2021/06/17 06:05:57;;;;;;;12.57;11.27;;;25.00;99.90;;;;;;4994715;28;20476;-78
2021/06/17 06:08:25;;;;;;;12.27;11.27;;;25.00;99.90;;;;;;5006554;28;20921;-77
2021/06/17 06:10:53;;;;;;;15.40;13.93;;;25.10;99.90;;;;;;4994920;28;20421;-77
2021/06/17 06:15:47;;;;;;;12.00;10.97;;;24.90;99.90;;;;;;5014728;28;20444;-77
2021/06/17 06:18:16;;;;;;;16.43;14.37;;;24.90;99.90;;;;;;5012869;28;20258;-77
2021/06/17 06:20:47;;;;;;;13.80;12.60;;;25.10;99.90;;;;;;5013895;28;20461;-77
2021/06/17 06:23:18;;;;;;;12.97;11.87;;;25.10;99.90;;;;;;5009651;28;20426;-75
2021/06/17 06:25:48;;;;;;;13.87;12.47;;;25.20;99.90;;;;;;5012957;28;20501;-76
2021/06/17 06:28:17;;;;;;;13.60;11.77;;;25.30;99.90;;;;;;5013090;28;20430;-76
2021/06/17 06:30:47;;;;;;;14.17;12.87;;;25.30;99.90;;;;;;5013232;28;20433;-76
2021/06/17 06:33:16;;;;;;;14.20;12.93;;;25.40;99.90;;;;;;5009330;28;20441;-77
2021/06/17 06:35:44;;;;;;;13.47;12.27;;;25.30;99.90;;;;;;5007277;28;20769;-76
2021/06/17 06:38:12;;;;;;;13.87;12.50;;;25.30;99.90;;;;;;5009755;28;20524;-76
2021/06/17 06:40:42;;;;;;;14.30;12.90;;;25.30;99.90;;;;;;5012964;28;20543;-77
2021/06/17 06:43:12;;;;;;;13.73;12.40;;;25.40;99.90;;;;;;5011684;28;20410;-76
2021/06/17 06:45:41;;;;;;;12.53;11.53;;;25.60;99.90;;;;;;5013491;28;20458;-75
2021/06/17 06:48:09;;;;;;;12.40;11.30;;;25.70;99.90;;;;;;5014791;28;20410;-75
2021/06/17 06:50:38;;;;;;;12.60;11.50;;;25.80;99.90;;;;;;5003984;28;20463;-77
2021/06/17 06:53:06;;;;;;;13.67;12.40;;;25.70;99.90;;;;;;4993003;28;20496;-77
2021/06/17 06:55:35;;;;;;;13.00;12.00;;;25.70;99.90;;;;;;4992741;28;20430;-75
2021/06/17 06:58:04;;;;;;;12.90;11.80;;;25.80;99.90;;;;;;4992359;28;20450;-76
2021/06/17 07:00:33;;;;;;;13.80;12.60;;;25.90;99.90;;;;;;4992669;28;20454;-76
2021/06/17 07:03:01;;;;;;;13.70;12.10;;;26.00;99.90;;;;;;4992067;28;20493;-76
2021/06/17 07:05:29;;;;;;;13.40;12.30;;;26.10;99.90;;;;;;4990289;28;20944;-76
2021/06/17 07:07:57;;;;;;;13.93;12.53;;;26.40;99.90;;;;;;4992612;28;20449;-76
2021/06/17 07:10:26;;;;;;;13.20;12.10;;;26.60;99.90;;;;;;4992370;28;20450;-76
2021/06/17 07:12:54;;;;;;;14.90;13.37;;;26.60;99.90;;;;;;4992672;28;20485;-76
2021/06/17 07:15:24;;;;;;;14.23;12.77;;;26.40;99.90;;;;;;4991881;28;20716;-77
2021/06/17 07:17:53;;;;;;;12.53;11.43;;;26.50;99.90;;;;;;4998139;28;20457;-77
2021/06/17 07:20:21;;;;;;;12.03;11.03;;;26.70;99.90;;;;;;4992993;28;20453;-77
2021/06/17 07:22:54;;;;;;;13.33;11.97;;;26.90;99.90;;;;;;4993095;28;20437;-76
2021/06/17 07:25:23;;;;;;;11.60;10.60;;;27.10;99.90;;;;;;4988531;28;20508;-76
2021/06/17 07:27:52;;;;;;;12.87;11.50;;;27.30;99.90;;;;;;4993129;28;20916;-76
2021/06/17 07:30:21;;;;;;;13.03;11.50;;;27.40;99.90;;;;;;4992395;28;20509;-76
2021/06/17 07:32:51;;;;;;;12.40;11.20;;;27.40;99.90;;;;;;4994229;28;20418;-76
2021/06/17 07:35:20;;;;;;;11.90;10.90;;;27.60;99.90;;;;;;4996570;28;20811;-76
2021/06/17 07:37:49;;;;;;;13.70;12.30;;;27.70;99.90;;;;;;4996797;28;20426;-76
2021/06/17 07:40:18;;;;;;;12.30;11.30;;;27.70;99.90;;;;;;4996381;28;20421;-77
2021/06/17 07:42:48;;;;;;;10.93;9.93;;;27.70;99.90;;;;;;4996613;28;20433;-76
2021/06/17 07:45:16;;;;;;;11.63;10.53;;;27.80;99.90;;;;;;4997104;28;20465;-76
2021/06/17 07:47:45;;;;;;;11.90;10.77;;;27.80;99.90;;;;;;4998373;28;20422;-77
2021/06/17 07:50:15;;;;;;;11.70;10.70;;;27.90;99.90;;;;;;4995914;28;20445;-76
2021/06/17 07:52:43;;;;;;;13.10;12.00;;;28.00;99.90;;;;;;4998508;28;20430;-76
2021/06/17 07:55:12;;;;;;;12.63;11.63;;;28.30;99.90;;;;;;4996364;28;20487;-77
2021/06/17 07:57:40;;;;;;;12.20;11.07;;;28.50;99.90;;;;;;4995138;28;20446;-77
2021/06/17 08:00:10;;;;;;;12.60;11.47;;;28.80;99.90;;;;;;4996987;28;20436;-76
2021/06/17 08:02:40;;;;;;;12.13;11.23;;;28.90;99.90;;;;;;4982555;28;20423;-77
2021/06/17 08:05:09;;;;;;;11.23;10.30;;;28.90;99.90;;;;;;4976099;28;20471;-77
2021/06/17 08:07:40;;;;;;;12.37;11.37;;;28.90;99.90;;;;;;4977003;28;20429;-77
2021/06/17 08:10:09;;;;;;;11.90;10.70;;;28.90;99.90;;;;;;4977205;28;20419;-77
2021/06/17 08:15:05;;;;;;;11.80;10.80;;;29.20;99.90;;;;;;4996015;28;20430;-76
2021/06/17 08:17:34;;;;;;;11.03;10.03;;;29.40;99.90;;;;;;4996846;28;20430;-78
2021/06/17 08:20:02;;;;;;;10.73;9.30;;;29.50;99.90;;;;;;4996116;28;20437;-77
2021/06/17 08:22:30;;;;;;;15.07;13.80;;;29.50;99.90;;;;;;4995959;28;20488;-76
2021/06/17 08:24:59;;;;;;;12.33;11.20;;;29.30;99.90;;;;;;5010202;28;20469;-77
2021/06/17 08:27:29;;;;;;;10.73;9.73;;;29.40;99.90;;;;;;4999963;28;20473;-76
2021/06/17 08:29:57;;;;;;;12.63;11.53;;;29.50;99.90;;;;;;4994556;28;20430;-77
2021/06/17 08:32:25;;;;;;;11.03;9.90;;;29.50;99.90;;;;;;4993923;28;20458;-77
2021/06/17 08:34:53;;;;;;;10.70;9.90;;;29.80;99.90;;;;;;4995136;28;20453;-78
2021/06/17 08:37:21;;;;;;;9.93;9.10;;;29.90;99.90;;;;;;5015492;28;20434;-76
2021/06/17 08:39:53;;;;;;;9.83;8.93;;;29.90;99.90;;;;;;5000441;28;20816;-78
2021/06/17 08:42:26;;;;;;;10.50;9.63;;;30.10;99.90;;;;;;5001136;28;20501;-77
2021/06/17 08:44:55;;;;;;;10.63;9.53;;;30.10;99.90;;;;;;4999023;28;20462;-78
2021/06/17 08:47:24;;;;;;;9.73;8.90;;;30.20;99.90;;;;;;4998849;28;20479;-77
2021/06/17 08:49:54;;;;;;;8.53;7.83;;;30.20;99.90;;;;;;5001792;28;20513;-76
2021/06/17 08:52:23;;;;;;;12.10;10.20;;;30.30;99.90;;;;;;5000476;28;20854;-77
2021/06/17 08:54:51;;;;;;;9.73;8.97;;;30.50;99.90;;;;;;4999562;28;20501;-77
2021/06/17 08:57:19;;;;;;;8.43;7.80;;;30.60;99.90;;;;;;4997973;28;20434;-78
2021/06/17 08:59:48;;;;;;;9.30;8.60;;;30.80;99.90;;;;;;4998704;28;20430;-77
2021/06/17 09:02:16;;;;;;;9.47;8.57;;;30.80;99.90;;;;;;4976654;28;20455;-77
2021/06/17 09:04:44;;;;;;;9.27;8.57;;;30.70;99.90;;;;;;4993459;28;20443;-78
2021/06/17 09:07:14;;;;;;;8.63;8.03;;;30.90;99.90;;;;;;4978606;28;20433;-78
2021/06/17 09:09:44;;;;;;;9.30;8.60;;;31.10;99.90;;;;;;4979485;28;20434;-78
2021/06/17 09:12:15;;;;;;;9.10;8.30;;;30.90;99.90;;;;;;4992061;28;20486;-76
2021/06/17 09:15:04;;;;;;;9.53;8.73;;;31.20;99.90;;;;;;4996445;28;20427;-76
2021/06/17 09:17:33;;;;;;;10.17;9.37;;;31.30;99.90;;;;;;4996432;28;20426;-77
2021/06/17 09:20:01;;;;;;;9.90;9.00;;;31.40;99.90;;;;;;4998426;28;20411;-76
2021/06/17 09:22:29;;;;;;;9.13;8.43;;;31.40;99.90;;;;;;4998348;28;20496;-79
2021/06/17 09:24:58;;;;;;;9.50;8.60;;;31.40;99.90;;;;;;4988204;28;20442;-78
2021/06/17 09:27:29;;;;;;;10.07;9.17;;;31.50;99.90;;;;;;5003370;28;20456;-78
2021/06/17 09:30:16;;;;;;;9.20;8.40;;;31.40;99.90;;;;;;5008288;28;20462;-77
2021/06/17 09:32:51;;;;;;;10.03;9.17;;;31.40;99.90;;;;;;5002346;28;20425;-79
2021/06/17 09:35:22;;;;;;;14.80;9.30;;;31.40;99.90;;;;;;5009493;28;20430;-78
2021/06/17 09:37:50;;;;;;;8.57;7.67;;;31.50;99.90;;;;;;5000407;28;20422;-78
2021/06/17 09:40:26;;;;;;;9.40;8.60;;;31.50;99.90;;;;;;5000052;28;20512;-79
2021/06/17 09:43:15;;;;;;;8.43;7.73;;;31.60;99.90;;;;;;5001006;28;20547;-79
2021/06/17 09:45:59;;;;;;;7.73;7.03;;;31.60;99.90;;;;;;4998531;28;20466;-78
2021/06/17 09:48:41;;;;;;;8.60;7.83;;;31.80;99.90;;;;;;4997498;28;20516;-79
2021/06/17 09:51:30;;;;;;;8.50;7.87;;;32.10;99.90;;;;;;4999874;28;20504;-77
2021/06/17 09:54:26;;;;;;;7.33;6.80;;;32.00;99.90;;;;;;4998787;28;20484;-78
2021/06/17 09:56:57;;;;;;;9.57;8.87;;;32.00;99.90;;;;;;4987796;28;20438;-78
2021/06/17 09:59:41;;;;;;;9.63;8.77;;;32.10;99.90;;;;;;5005560;28;20420;-78
2021/06/17 10:02:12;;;;;;;8.10;7.50;;;32.30;99.90;;;;;;5006246;28;20467;-78
2021/06/17 10:04:42;;;;;;;7.13;6.43;;;32.30;99.90;;;;;;5004757;28;20406;-78
2021/06/17 10:07:10;;;;;;;7.00;6.40;;;32.10;99.90;;;;;;4998459;28;20471;-79
2021/06/17 10:09:38;;;;;;;7.30;6.60;;;32.30;99.90;;;;;;4999118;28;20435;-79
2021/06/17 10:12:07;;;;;;;7.23;6.63;;;32.40;99.90;;;;;;4999711;28;20456;-78
2021/06/17 10:14:35;;;;;;;7.87;7.20;;;32.40;99.90;;;;;;4998913;28;20431;-78
2021/06/17 10:17:04;;;;;;;7.00;6.40;;;32.40;99.90;;;;;;5014594;28;20961;-78
2021/06/17 10:19:33;;;;;;;6.50;5.90;;;32.70;99.90;;;;;;4998694;28;20444;-78
2021/06/17 10:22:04;;;;;;;6.00;5.50;;;32.80;99.90;;;;;;4999010;28;20523;-79
2021/06/17 10:24:39;;;;;;;6.93;6.43;;;32.80;99.90;;;;;;5000597;28;20467;-78
2021/06/17 10:27:10;;;;;;;6.60;6.10;;;32.80;99.90;;;;;;4997326;28;20986;-77
2021/06/17 10:29:40;;;;;;;6.77;6.17;;;32.80;99.90;;;;;;4995749;28;20935;-77
2021/06/17 10:32:12;;;;;;;6.40;5.90;;;32.80;99.90;;;;;;4996738;28;20444;-77
2021/06/17 10:34:49;;;;;;;6.50;6.00;;;33.00;99.90;;;;;;4997585;28;20471;-77
2021/06/17 10:37:22;;;;;;;7.20;6.53;;;33.10;99.90;;;;;;4999933;28;20425;-77
2021/06/17 10:39:52;;;;;;;7.33;6.73;;;33.30;99.90;;;;;;5009431;28;20398;-78
2021/06/17 10:42:32;;;;;;;9.80;7.47;;;33.40;99.90;;;;;;5015364;28;20429;-78
2021/06/17 10:45:02;;;;;;;6.50;6.00;;;33.40;99.90;;;;;;5013868;28;20457;-78
2021/06/17 10:47:56;;;;;;;7.90;6.83;;;33.30;99.90;;;;;;5016433;28;20453;-76
2021/06/17 10:50:32;;;;;;;8.00;7.37;;;33.40;99.90;;;;;;4999871;28;20486;-76
2021/06/17 10:53:28;;;;;;;7.20;6.63;;;33.20;99.90;;;;;;5017042;28;20435;-76
2021/06/17 10:56:01;;;;;;;6.80;6.20;;;33.10;99.90;;;;;;5017463;28;20424;-79
2021/06/17 10:58:59;;;;;;;7.30;6.60;;;32.90;99.90;;;;;;5014919;28;20504;-77
2021/06/17 11:01:32;;;;;;;6.93;6.37;;;32.80;99.90;;;;;;4998013;28;20539;-77
2021/06/17 11:04:03;;;;;;;7.17;6.23;;;32.80;99.90;;;;;;4995556;28;20431;-77
2021/06/17 11:07:25;;;;;;;7.27;6.57;;;32.80;99.90;;;;;;4997118;28;20459;-77
2021/06/17 11:10:03;;;;;;;6.33;5.73;;;33.10;99.90;;;;;;5003352;28;20443;-78
2021/06/17 11:13:00;;;;;;;7.77;6.87;;;33.20;99.90;;;;;;5018238;28;20803;-79
2021/06/17 11:15:45;;;;;;;7.40;6.90;;;33.30;99.90;;;;;;5002904;28;20437;-79
2021/06/17 11:18:32;;;;;;;6.50;6.00;;;33.60;99.90;;;;;;5003721;28;20516;-78
2021/06/17 11:21:00;;;;;;;6.80;6.27;;;33.70;99.90;;;;;;5016074;28;20472;-78
2021/06/17 11:23:29;;;;;;;6.63;6.00;;;33.80;99.90;;;;;;5000675;28;20431;-77
2021/06/17 11:26:00;;;;;;;6.40;5.90;;;33.80;99.90;;;;;;5000133;28;20433;-82
2021/06/17 11:28:49;;;;;;;7.30;6.57;;;33.90;99.90;;;;;;4999528;28;20433;-79
2021/06/17 11:31:36;;;;;;;6.60;6.00;;;33.80;99.90;;;;;;5004493;28;20536;-78
2021/06/17 11:34:04;;;;;;;6.20;5.70;;;33.80;99.90;;;;;;5002092;28;20485;-77
2021/06/17 11:36:33;;;;;;;5.83;5.33;;;33.80;99.90;;;;;;5002063;28;20885;-77
2021/06/17 11:39:03;;;;;;;6.60;6.00;;;33.90;99.90;;;;;;5008871;28;20509;-76
2021/06/17 11:41:59;;;;;;;6.67;6.17;;;33.90;99.90;;;;;;5009325;28;20483;-77
2021/06/17 11:44:29;;;;;;;6.30;5.70;;;33.90;99.90;;;;;;5002953;28;20418;-77
2021/06/17 11:47:07;;;;;;;7.10;6.57;;;33.70;99.90;;;;;;4998705;28;20480;-76
2021/06/17 11:49:39;;;;;;;7.00;5.90;;;33.70;99.90;;;;;;4996897;28;20457;-76
2021/06/17 11:52:09;;;;;;;7.37;6.53;;;33.70;99.90;;;;;;4997134;28;20468;-78
2021/06/17 11:54:38;;;;;;;5.60;5.20;;;33.50;99.90;;;;;;4998841;28;20911;-78
2021/06/17 11:57:12;;;;;;;7.00;6.30;;;33.50;99.90;;;;;;5006052;28;20441;-77
2021/06/17 11:59:42;;;;;;;6.60;6.10;;;33.70;99.90;;;;;;5004940;28;20453;-77
2021/06/17 12:02:16;;;;;;;7.50;6.43;;;33.70;99.90;;;;;;5016214;28;20473;-79
2021/06/17 12:04:58;;;;;;;6.33;5.80;;;33.70;99.90;;;;;;5009582;28;20452;-81
2021/06/17 12:07:38;;;;;;;7.60;6.90;;;33.80;99.90;;;;;;4988995;28;20465;-80
2021/06/17 12:10:13;;;;;;;6.53;6.03;;;33.70;99.90;;;;;;5014130;28;20414;-80
2021/06/17 12:12:50;;;;;;;6.50;5.90;;;33.30;99.90;;;;;;5005141;28;20451;-79
2021/06/17 12:15:20;;;;;;;10.20;6.23;;;33.00;99.90;;;;;;5016780;28;20464;-80
2021/06/17 12:17:53;;;;;;;9.67;8.77;;;32.80;99.90;;;;;;5007290;28;20432;-82
2021/06/17 12:20:24;;;;;;;6.90;6.37;;;32.80;99.90;;;;;;5003195;28;20993;-82
2021/06/17 12:23:08;;;;;;;6.90;6.40;;;32.90;99.90;;;;;;5002885;28;20490;-83
2021/06/17 12:25:38;;;;;;;6.00;5.43;;;33.20;99.90;;;;;;5006435;28;20427;-83
2021/06/17 12:28:10;;;;;;;6.70;6.10;;;33.30;99.90;;;;;;5006300;28;20499;-82
2021/06/17 12:30:39;;;;;;;6.17;5.70;;;33.40;99.90;;;;;;5021768;28;20557;-80
2021/06/17 12:33:12;;;;;;;7.33;6.73;;;33.40;99.90;;;;;;5021810;28;20447;-82
2021/06/17 12:35:49;;;;;;;6.23;5.70;;;33.40;99.90;;;;;;5006207;28;20430;-82
2021/06/17 12:38:26;;;;;;;6.77;6.27;;;33.40;99.90;;;;;;5005243;28;20418;-82
2021/06/17 12:40:55;;;;;;;6.53;5.93;;;33.40;99.90;;;;;;5004458;28;20482;-81
2021/06/17 12:43:26;;;;;;;6.00;5.50;;;33.50;99.90;;;;;;5006588;28;20414;-82
2021/06/17 12:46:04;;;;;;;6.90;6.30;;;33.60;99.90;;;;;;5008532;28;20418;-82
2021/06/17 12:54:06;;;;;;;6.50;6.00;;;33.90;99.90;;;;;;5007990;28;20777;-81
2021/06/17 12:56:34;;;;;;;7.40;6.80;;;34.10;99.90;;;;;;5007921;28;20449;-80
2021/06/17 12:59:04;;;;;;;6.83;6.23;;;34.00;99.90;;;;;;5007521;28;20449;-79
2021/06/17 13:01:47;;;;;;;6.83;6.23;;;33.90;99.90;;;;;;5009585;28;20571;-80
2021/06/17 13:04:17;;;;;;;7.80;6.00;;;33.90;99.90;;;;;;5007484;28;20424;-80
2021/06/17 13:06:46;;;;;;;6.43;5.87;;;33.70;99.90;;;;;;5006996;28;20503;-80
2021/06/17 13:09:26;;;;;;;7.03;6.47;;;33.70;99.90;;;;;;5007349;28;20520;-81
2021/06/17 13:12:13;;;;;;;6.17;5.57;;;34.10;99.90;;;;;;5016852;28;20438;-80